Newtown, Indiana
Current Conditions -  °F | °C
As of 11:54 PM on Friday 28 Nov 2014 (Local Time) from KLAF Reporting Station
Clear Clear  
Wind Chill: 24°   Ceiling: Unl
Heat Index: 31°   Visibility: 10mi
Dew Point: 25°   Wind: 7mph
Humidity: 79%   Direction: 150°SSE
Pressure: 29.97"   Gusts: NA
Location:  40.2°N, 87.15°W
Report Text: KLAF 290454Z 15006KT 10SM CLR M01/M04 A2997 RMK AO2 SLP154 T10061039 400061094
Loading
Personal Weather Stations






























Interactive Weather Map New forecast layout! Learn more

10-Day Weather Forecast

Advertisements
Track Severe Weather on mobile